createdAt,value
2022-08-28T00:00:55.039Z,5.90
2022-08-28T00:05:59.963Z,5.45
2022-08-28T00:11:02.717Z,5.25
2022-08-28T00:16:06.801Z,5.30
2022-08-28T00:21:11.269Z,4.80
2022-08-28T00:26:34.619Z,4.93
2022-08-28T00:31:38.488Z,4.85
2022-08-28T00:36:42.731Z,4.30
2022-08-28T00:41:45.498Z,4.07
2022-08-28T00:46:49.933Z,4.28
2022-08-28T00:52:09.079Z,4.38
2022-08-28T00:57:17.199Z,3.78
2022-08-28T01:02:20.286Z,2.88
2022-08-28T01:07:24.487Z,2.72
2022-08-28T01:12:30.279Z,2.40
2022-08-28T01:17:35.198Z,2.45
2022-08-28T01:22:41.996Z,2.00
2022-08-28T01:27:46.005Z,2.30
2022-08-28T01:32:53.707Z,2.42
2022-08-28T01:37:57.144Z,2.45
2022-08-28T01:43:10.028Z,3.10
2022-08-28T01:48:13.643Z,2.17
2022-08-28T01:53:18.337Z,2.53
2022-08-28T01:58:24.442Z,2.20
2022-08-28T02:03:30.280Z,1.95
2022-08-28T02:08:33.007Z,2.10
2022-08-28T02:13:38.878Z,2.63
2022-08-28T02:18:41.776Z,2.15
2022-08-28T02:23:46.151Z,2.13
2022-08-28T02:28:50.269Z,2.03
2022-08-28T02:33:53.051Z,2.20
2022-08-28T02:38:57.964Z,2.45
2022-08-28T02:44:02.403Z,2.20
2022-08-28T02:49:05.089Z,2.65
2022-08-28T02:54:07.861Z,1.80
2022-08-28T02:59:11.863Z,1.95
2022-08-28T03:04:14.555Z,1.80
2022-08-28T03:09:17.284Z,1.83
2022-08-28T03:14:21.953Z,1.70
2022-08-28T03:19:24.997Z,1.67
2022-08-28T03:24:28.837Z,2.10
2022-08-28T03:29:33.344Z,1.85
2022-08-28T03:34:36.087Z,1.70
2022-08-28T03:39:38.817Z,2.20
2022-08-28T03:44:42.856Z,1.67
2022-08-28T03:49:46.352Z,1.92
2022-08-28T03:54:49.147Z,1.38
2022-08-28T03:59:54.803Z,1.88
2022-08-28T04:04:58.058Z,1.42
2022-08-28T04:10:00.880Z,1.80
2022-08-28T04:15:06.974Z,2.45
2022-08-28T04:20:11.963Z,1.70
2022-08-28T04:25:14.835Z,1.67
2022-08-28T04:30:19.960Z,1.92
2022-08-28T04:35:23.106Z,1.90
2022-08-28T04:40:26.100Z,2.15
2022-08-28T04:45:30.461Z,1.80
2022-08-28T04:50:33.672Z,2.25
2022-08-28T04:55:54.503Z,1.75
2022-08-28T05:00:59.898Z,1.60
2022-08-28T05:06:03.619Z,2.03
2022-08-28T05:11:27.315Z,1.88
2022-08-28T05:16:44.110Z,1.48
2022-08-28T05:21:47.128Z,2.10
2022-08-28T05:26:50.010Z,2.20
2022-08-28T05:31:54.551Z,1.92
2022-08-28T05:36:57.284Z,2.10
2022-08-28T05:42:00.060Z,1.92
2022-08-28T05:47:04.255Z,1.95
2022-08-28T05:52:07.002Z,2.10
2022-08-28T05:57:10.904Z,1.77
2022-08-28T06:02:15.069Z,1.95
2022-08-28T06:07:19.302Z,2.33
2022-08-28T06:12:22.066Z,2.15
2022-08-28T06:17:26.117Z,2.28
2022-08-28T06:22:28.937Z,2.28
2022-08-28T06:27:33.571Z,2.42
2022-08-28T06:32:37.687Z,2.33
2022-08-28T06:37:40.399Z,2.20
2022-08-28T06:42:43.103Z,2.25
2022-08-28T06:47:48.582Z,2.50
2022-08-28T06:52:53.617Z,2.50
2022-08-28T06:57:56.311Z,2.30
2022-08-28T07:03:00.666Z,1.98
2022-08-28T07:08:03.796Z,2.33
2022-08-28T07:13:06.881Z,2.42
2022-08-28T07:18:11.083Z,2.50
2022-08-28T07:23:13.911Z,2.92
2022-08-28T07:28:16.953Z,2.28
2022-08-28T07:33:21.188Z,2.55
2022-08-28T07:38:25.299Z,2.40
2022-08-28T07:43:45.653Z,2.40
2022-08-28T07:48:50.289Z,2.20
2022-08-28T07:53:53.403Z,2.83
2022-08-28T07:58:57.738Z,3.00
2022-08-28T08:04:02.383Z,2.45
2022-08-28T08:09:06.318Z,2.70
2022-08-28T08:14:10.034Z,2.35
2022-08-28T08:19:14.937Z,2.65
2022-08-28T08:24:21.033Z,2.50
2022-08-28T08:29:24.758Z,2.85
2022-08-28T08:34:28.792Z,2.42
2022-08-28T08:39:31.866Z,2.65
2022-08-28T08:44:38.285Z,2.85
2022-08-28T08:49:44.914Z,2.38
2022-08-28T08:54:59.364Z,2.60
2022-08-28T09:00:03.736Z,2.20
2022-08-28T09:05:10.458Z,2.60
2022-08-28T09:10:15.576Z,2.33
2022-08-28T09:15:22.260Z,2.78
2022-08-28T09:20:32.801Z,2.75
2022-08-28T09:25:52.025Z,2.88
2022-08-28T09:30:59.185Z,2.22
2022-08-28T09:36:31.890Z,2.30
2022-08-28T09:41:55.194Z,2.08
2022-08-28T09:46:58.271Z,2.42
2022-08-28T09:52:20.810Z,2.83
2022-08-28T09:57:27.316Z,2.63
2022-08-28T10:02:39.252Z,2.28
2022-08-28T10:07:48.654Z,2.50
2022-08-28T10:13:02.040Z,2.85
2022-08-28T10:18:18.481Z,2.20
2022-08-28T10:23:28.974Z,2.50
2022-08-28T10:28:43.017Z,2.67
2022-08-28T10:34:11.077Z,2.15
2022-08-28T10:39:25.242Z,2.20
2022-08-28T10:44:31.803Z,2.38
2022-08-28T10:49:38.141Z,2.40
2022-08-28T10:54:47.030Z,2.30
2022-08-28T10:59:51.671Z,1.77
2022-08-28T11:04:58.486Z,2.10
2022-08-28T11:15:50.290Z,1.75
2022-08-28T11:20:58.369Z,2.17
2022-08-28T11:26:05.250Z,1.95
2022-08-28T11:31:31.597Z,2.08
2022-08-28T11:36:58.186Z,2.17
2022-08-28T11:42:39.533Z,2.03
2022-08-28T11:47:49.031Z,2.10
2022-08-28T11:53:24.657Z,2.40
2022-08-28T11:58:31.745Z,2.05
2022-08-28T12:03:39.067Z,2.08
2022-08-28T12:09:12.271Z,1.90
2022-08-28T12:15:07.680Z,2.17
2022-08-28T12:20:17.808Z,2.10
2022-08-28T12:25:29.037Z,2.35
2022-08-28T12:30:33.627Z,1.92
2022-08-28T12:35:38.102Z,1.58
2022-08-28T12:40:50.390Z,2.40
2022-08-28T12:45:55.645Z,2.10
2022-08-28T12:51:03.144Z,2.08
2022-08-28T12:56:06.224Z,1.80
2022-08-28T13:01:11.510Z,1.88
2022-08-28T13:06:23.644Z,2.00
2022-08-28T13:11:26.432Z,1.75
2022-08-28T13:16:38.635Z,1.83
2022-08-28T13:21:58.526Z,1.70
2022-08-28T13:27:04.191Z,1.60
2022-08-28T13:32:09.116Z,1.92
2022-08-28T13:37:44.453Z,1.50
2022-08-28T13:42:47.970Z,1.67
2022-08-28T13:47:50.683Z,1.67
2022-08-28T13:52:54.787Z,1.73
2022-08-28T13:57:57.654Z,1.40
2022-08-28T14:03:18.012Z,1.50
2022-08-28T14:08:22.658Z,1.80
2022-08-28T14:13:27.583Z,2.00
2022-08-28T14:18:30.324Z,1.80
2022-08-28T14:23:34.578Z,1.60
2022-08-28T14:28:37.334Z,2.15
2022-08-28T14:33:40.357Z,1.70
2022-08-28T14:38:47.238Z,1.67
2022-08-28T14:43:50.329Z,1.70
2022-08-28T14:48:53.181Z,1.95
2022-08-28T14:53:59.034Z,1.67
2022-08-28T14:59:03.232Z,1.80
2022-08-28T15:04:07.510Z,1.40
2022-08-28T15:09:12.107Z,1.70
2022-08-28T15:14:14.844Z,1.42
2022-08-28T15:19:18.385Z,2.05
2022-08-28T15:24:24.703Z,1.77
2022-08-28T15:29:28.263Z,1.50
2022-08-28T15:34:31.156Z,2.00
2022-08-28T15:39:53.052Z,1.23
2022-08-28T15:44:55.944Z,1.75
2022-08-28T15:50:00.464Z,1.38
2022-08-28T15:55:06.248Z,1.30
2022-08-28T16:00:10.638Z,1.33
2022-08-28T16:05:13.865Z,1.52
2022-08-28T16:10:19.477Z,1.08
2022-08-28T16:15:22.497Z,1.38
2022-08-28T16:20:25.668Z,1.13
2022-08-28T16:25:29.835Z,1.63
2022-08-28T16:30:33.316Z,1.23
2022-08-28T16:35:40.687Z,1.02
2022-08-28T16:40:52.672Z,1.17
2022-08-28T16:45:55.555Z,1.10
2022-08-28T16:50:58.444Z,0.90
2022-08-28T16:56:02.749Z,1.20
2022-08-28T17:01:06.382Z,1.10
2022-08-28T17:06:12.851Z,1.25
2022-08-28T17:11:17.266Z,1.20
2022-08-28T17:16:21.080Z,1.10
2022-08-28T17:21:41.927Z,1.08
2022-08-28T17:26:46.060Z,0.93
2022-08-28T17:31:48.904Z,1.08
2022-08-28T17:36:52.713Z,0.85
2022-08-28T17:41:57.607Z,1.20
2022-08-28T17:47:00.856Z,1.00
2022-08-28T17:52:04.120Z,1.13
2022-08-28T17:57:08.498Z,1.20
2022-08-28T18:02:11.683Z,1.23
2022-08-28T18:07:14.519Z,1.15
2022-08-28T18:12:18.685Z,1.58
2022-08-28T18:17:21.538Z,1.10
2022-08-28T18:22:29.470Z,1.20
2022-08-28T18:27:34.992Z,1.27
2022-08-28T18:32:38.023Z,1.20
2022-08-28T18:37:41.178Z,1.50
2022-08-28T18:42:45.476Z,1.52
2022-08-28T18:47:48.195Z,1.45
2022-08-28T18:52:51.466Z,1.30
2022-08-28T18:57:56.132Z,1.30
2022-08-28T19:03:00.010Z,1.33
2022-08-28T19:08:02.960Z,1.33
2022-08-28T19:13:08.472Z,1.20
2022-08-28T19:18:11.290Z,1.15
2022-08-28T19:23:17.405Z,1.33
2022-08-28T19:28:22.206Z,1.30
2022-08-28T19:33:25.060Z,1.30
2022-08-28T19:38:31.168Z,1.25
2022-08-28T19:43:43.114Z,1.25
2022-08-28T19:48:46.929Z,1.30
2022-08-28T19:53:56.853Z,1.20
2022-08-28T19:59:03.730Z,1.27
2022-08-28T20:04:08.081Z,1.60
2022-08-28T20:09:13.058Z,1.35
2022-08-28T20:14:19.304Z,1.48
2022-08-28T20:19:22.618Z,1.35
2022-08-28T20:24:25.418Z,1.20
2022-08-28T20:29:29.608Z,1.10
2022-08-28T20:34:32.495Z,4.75
2022-08-28T20:39:37.016Z,1.55
2022-08-28T20:44:41.301Z,1.23
2022-08-28T20:49:44.198Z,1.20
2022-08-28T20:54:47.277Z,1.00
2022-08-28T20:59:54.087Z,1.20
2022-08-28T21:04:57.097Z,1.60
2022-08-28T21:10:05.456Z,1.35
2022-08-28T21:15:13.107Z,1.35
2022-08-28T21:20:16.513Z,1.25
2022-08-28T21:25:21.099Z,1.27
2022-08-28T21:30:25.468Z,1.15
2022-08-28T21:35:32.709Z,1.00
2022-08-28T21:40:36.230Z,1.30
2022-08-28T21:45:40.342Z,1.17
2022-08-28T21:50:43.399Z,1.45
2022-08-28T21:55:49.031Z,1.15
2022-08-28T22:00:56.814Z,1.25
2022-08-28T22:05:59.616Z,1.25
2022-08-28T22:11:02.634Z,1.80
2022-08-28T22:16:07.456Z,1.30
2022-08-28T22:21:31.097Z,1.42
2022-08-28T22:26:33.940Z,1.27
2022-08-28T22:31:45.495Z,1.20
2022-08-28T22:36:49.162Z,1.23
2022-08-28T22:41:52.020Z,1.10
2022-08-28T22:46:56.142Z,1.42
2022-08-28T22:51:58.857Z,1.08
2022-08-28T22:57:02.289Z,1.15
2022-08-28T23:02:06.488Z,1.00
2022-08-28T23:07:09.190Z,1.33
2022-08-28T23:12:11.890Z,1.38
2022-08-28T23:17:16.921Z,1.30
2022-08-28T23:22:19.917Z,1.35
2022-08-28T23:27:38.202Z,1.27
2022-08-28T23:32:42.490Z,1.30
2022-08-28T23:37:48.879Z,1.60
2022-08-28T23:42:55.592Z,1.48
2022-08-28T23:47:59.654Z,1.13
2022-08-28T23:53:02.609Z,1.10
2022-08-28T23:58:05.750Z,1.42
